sensor_id;sensor_type;location;lat;lon;timestamp;temperature;humidity
80279;DHT22;70683;52.492;13.416;2024-02-14T00:00:10;7.00;86.50
80279;DHT22;70683;52.492;13.416;2024-02-14T00:02:43;7.00;85.80
80279;DHT22;70683;52.492;13.416;2024-02-14T00:05:10;7.00;86.00
80279;DHT22;70683;52.492;13.416;2024-02-14T00:07:37;6.90;86.00
80279;DHT22;70683;52.492;13.416;2024-02-14T00:10:06;6.90;86.50
80279;DHT22;70683;52.492;13.416;2024-02-14T00:12:33;6.80;86.50
80279;DHT22;70683;52.492;13.416;2024-02-14T00:15:08;6.80;85.70
80279;DHT22;70683;52.492;13.416;2024-02-14T00:17:35;6.80;85.90
80279;DHT22;70683;52.492;13.416;2024-02-14T00:20:03;6.70;86.40
80279;DHT22;70683;52.492;13.416;2024-02-14T00:22:31;6.60;88.00
80279;DHT22;70683;52.492;13.416;2024-02-14T00:24:58;6.60;87.40
80279;DHT22;70683;52.492;13.416;2024-02-14T00:27:24;6.60;87.50
80279;DHT22;70683;52.492;13.416;2024-02-14T00:29:52;6.60;87.50
80279;DHT22;70683;52.492;13.416;2024-02-14T00:32:19;6.70;87.40
80279;DHT22;70683;52.492;13.416;2024-02-14T00:34:46;6.70;86.70
80279;DHT22;70683;52.492;13.416;2024-02-14T00:37:13;6.70;87.90
80279;DHT22;70683;52.492;13.416;2024-02-14T00:39:40;6.70;87.30
80279;DHT22;70683;52.492;13.416;2024-02-14T00:42:06;6.70;86.90
80279;DHT22;70683;52.492;13.416;2024-02-14T00:44:33;6.70;86.30
80279;DHT22;70683;52.492;13.416;2024-02-14T00:47:00;6.70;86.20
80279;DHT22;70683;52.492;13.416;2024-02-14T00:49:28;6.60;87.10
80279;DHT22;70683;52.492;13.416;2024-02-14T00:51:55;6.60;88.20
80279;DHT22;70683;52.492;13.416;2024-02-14T00:54:22;6.70;89.60
80279;DHT22;70683;52.492;13.416;2024-02-14T00:56:48;6.70;87.80
80279;DHT22;70683;52.492;13.416;2024-02-14T00:59:15;6.70;87.10
80279;DHT22;70683;52.492;13.416;2024-02-14T01:01:42;6.70;86.80
80279;DHT22;70683;52.492;13.416;2024-02-14T01:04:10;6.70;87.10
80279;DHT22;70683;52.492;13.416;2024-02-14T01:06:37;6.60;88.10
80279;DHT22;70683;52.492;13.416;2024-02-14T01:09:04;6.60;87.20
80279;DHT22;70683;52.492;13.416;2024-02-14T01:11:30;6.70;86.90
80279;DHT22;70683;52.492;13.416;2024-02-14T01:13:57;6.60;88.60
80279;DHT22;70683;52.492;13.416;2024-02-14T01:16:25;6.60;88.40
80279;DHT22;70683;52.492;13.416;2024-02-14T01:18:52;6.60;89.10
80279;DHT22;70683;52.492;13.416;2024-02-14T01:21:18;6.60;88.80
80279;DHT22;70683;52.492;13.416;2024-02-14T01:23:45;6.70;87.80
80279;DHT22;70683;52.492;13.416;2024-02-14T01:26:12;6.70;88.60
80279;DHT22;70683;52.492;13.416;2024-02-14T01:28:39;6.70;87.60
80279;DHT22;70683;52.492;13.416;2024-02-14T01:31:05;6.70;87.50
80279;DHT22;70683;52.492;13.416;2024-02-14T01:33:32;6.60;87.30
80279;DHT22;70683;52.492;13.416;2024-02-14T01:35:59;6.60;87.50
80279;DHT22;70683;52.492;13.416;2024-02-14T01:38:26;6.60;89.30
80279;DHT22;70683;52.492;13.416;2024-02-14T01:40:52;6.60;88.00
80279;DHT22;70683;52.492;13.416;2024-02-14T01:43:20;6.60;88.20
80279;DHT22;70683;52.492;13.416;2024-02-14T01:45:46;6.60;89.00
80279;DHT22;70683;52.492;13.416;2024-02-14T01:48:14;6.60;88.40
80279;DHT22;70683;52.492;13.416;2024-02-14T01:50:43;6.60;88.00
80279;DHT22;70683;52.492;13.416;2024-02-14T01:53:11;6.70;87.60
80279;DHT22;70683;52.492;13.416;2024-02-14T01:55:38;6.70;87.30
80279;DHT22;70683;52.492;13.416;2024-02-14T01:58:05;6.70;87.60
80279;DHT22;70683;52.492;13.416;2024-02-14T02:00:32;6.70;86.80
80279;DHT22;70683;52.492;13.416;2024-02-14T02:03:00;6.60;87.90
80279;DHT22;70683;52.492;13.416;2024-02-14T02:05:27;6.50;88.40
80279;DHT22;70683;52.492;13.416;2024-02-14T02:07:54;6.40;88.90
80279;DHT22;70683;52.492;13.416;2024-02-14T02:10:21;6.50;88.80
80279;DHT22;70683;52.492;13.416;2024-02-14T02:12:48;6.60;88.10
80279;DHT22;70683;52.492;13.416;2024-02-14T02:15:16;6.50;88.10
80279;DHT22;70683;52.492;13.416;2024-02-14T02:17:44;6.50;88.80
80279;DHT22;70683;52.492;13.416;2024-02-14T02:20:13;6.60;87.80
80279;DHT22;70683;52.492;13.416;2024-02-14T02:22:46;6.60;88.10
80279;DHT22;70683;52.492;13.416;2024-02-14T02:25:14;6.60;87.60
80279;DHT22;70683;52.492;13.416;2024-02-14T02:27:41;6.60;87.50
80279;DHT22;70683;52.492;13.416;2024-02-14T02:30:08;6.60;87.90
80279;DHT22;70683;52.492;13.416;2024-02-14T02:32:36;6.50;87.60
80279;DHT22;70683;52.492;13.416;2024-02-14T02:35:04;6.40;87.80
80279;DHT22;70683;52.492;13.416;2024-02-14T02:37:31;6.40;89.10
80279;DHT22;70683;52.492;13.416;2024-02-14T02:39:58;6.30;88.70
80279;DHT22;70683;52.492;13.416;2024-02-14T02:42:24;6.40;88.90
80279;DHT22;70683;52.492;13.416;2024-02-14T02:44:51;6.40;89.20
80279;DHT22;70683;52.492;13.416;2024-02-14T02:47:18;6.40;88.70
80279;DHT22;70683;52.492;13.416;2024-02-14T02:49:45;6.40;89.00
80279;DHT22;70683;52.492;13.416;2024-02-14T02:52:12;6.40;89.00
80279;DHT22;70683;52.492;13.416;2024-02-14T02:54:39;6.30;89.10
80279;DHT22;70683;52.492;13.416;2024-02-14T02:57:07;6.40;88.40
80279;DHT22;70683;52.492;13.416;2024-02-14T02:59:35;6.30;88.90
80279;DHT22;70683;52.492;13.416;2024-02-14T03:02:03;6.40;89.00
80279;DHT22;70683;52.492;13.416;2024-02-14T03:04:32;6.30;88.60
80279;DHT22;70683;52.492;13.416;2024-02-14T03:06:59;6.30;88.60
80279;DHT22;70683;52.492;13.416;2024-02-14T03:09:28;6.30;88.60
80279;DHT22;70683;52.492;13.416;2024-02-14T03:11:54;6.30;88.30
80279;DHT22;70683;52.492;13.416;2024-02-14T03:14:22;6.30;88.80
80279;DHT22;70683;52.492;13.416;2024-02-14T03:16:49;6.20;89.20
80279;DHT22;70683;52.492;13.416;2024-02-14T03:19:17;6.20;89.00
80279;DHT22;70683;52.492;13.416;2024-02-14T03:21:43;6.20;88.90
80279;DHT22;70683;52.492;13.416;2024-02-14T03:24:11;6.30;89.30
80279;DHT22;70683;52.492;13.416;2024-02-14T03:26:38;6.30;88.80
80279;DHT22;70683;52.492;13.416;2024-02-14T03:29:04;6.20;89.30
80279;DHT22;70683;52.492;13.416;2024-02-14T03:31:32;6.20;89.40
80279;DHT22;70683;52.492;13.416;2024-02-14T03:34:00;6.20;88.90
80279;DHT22;70683;52.492;13.416;2024-02-14T03:36:26;6.20;88.90
80279;DHT22;70683;52.492;13.416;2024-02-14T03:38:55;6.20;88.80
80279;DHT22;70683;52.492;13.416;2024-02-14T03:41:21;6.20;88.80
80279;DHT22;70683;52.492;13.416;2024-02-14T03:43:48;6.20;89.70
80279;DHT22;70683;52.492;13.416;2024-02-14T03:46:16;6.10;89.60
80279;DHT22;70683;52.492;13.416;2024-02-14T03:48:44;6.20;89.00
80279;DHT22;70683;52.492;13.416;2024-02-14T03:51:10;6.30;88.30
80279;DHT22;70683;52.492;13.416;2024-02-14T03:53:37;6.20;89.10
80279;DHT22;70683;52.492;13.416;2024-02-14T03:56:05;6.20;89.80
80279;DHT22;70683;52.492;13.416;2024-02-14T03:58:33;6.20;88.90
80279;DHT22;70683;52.492;13.416;2024-02-14T04:01:02;6.20;88.80
80279;DHT22;70683;52.492;13.416;2024-02-14T04:03:29;6.20;88.50
80279;DHT22;70683;52.492;13.416;2024-02-14T04:05:55;6.20;89.10
80279;DHT22;70683;52.492;13.416;2024-02-14T04:08:23;6.10;89.40
80279;DHT22;70683;52.492;13.416;2024-02-14T04:10:50;6.10;89.40
80279;DHT22;70683;52.492;13.416;2024-02-14T04:13:20;6.20;89.00
80279;DHT22;70683;52.492;13.416;2024-02-14T04:15:47;6.20;90.20
80279;DHT22;70683;52.492;13.416;2024-02-14T04:18:13;6.30;89.10
80279;DHT22;70683;52.492;13.416;2024-02-14T04:20:44;6.40;89.00
80279;DHT22;70683;52.492;13.416;2024-02-14T04:23:11;6.40;89.00
80279;DHT22;70683;52.492;13.416;2024-02-14T04:25:37;6.40;89.10
80279;DHT22;70683;52.492;13.416;2024-02-14T04:28:04;6.40;88.20
80279;DHT22;70683;52.492;13.416;2024-02-14T04:30:31;6.50;88.40
80279;DHT22;70683;52.492;13.416;2024-02-14T04:32:58;6.50;89.00
80279;DHT22;70683;52.492;13.416;2024-02-14T04:35:25;6.50;88.90
80279;DHT22;70683;52.492;13.416;2024-02-14T04:37:51;6.50;88.40
80279;DHT22;70683;52.492;13.416;2024-02-14T04:40:18;6.60;88.00
80279;DHT22;70683;52.492;13.416;2024-02-14T04:42:46;6.50;87.90
80279;DHT22;70683;52.492;13.416;2024-02-14T04:45:12;6.50;87.80
80279;DHT22;70683;52.492;13.416;2024-02-14T04:47:39;6.50;87.90
80279;DHT22;70683;52.492;13.416;2024-02-14T04:50:08;6.50;88.50
80279;DHT22;70683;52.492;13.416;2024-02-14T04:52:35;6.40;88.30
80279;DHT22;70683;52.492;13.416;2024-02-14T04:55:01;6.50;88.00
80279;DHT22;70683;52.492;13.416;2024-02-14T04:57:29;6.40;88.30
80279;DHT22;70683;52.492;13.416;2024-02-14T04:59:57;6.40;89.80
80279;DHT22;70683;52.492;13.416;2024-02-14T05:02:23;6.40;88.50
80279;DHT22;70683;52.492;13.416;2024-02-14T05:04:50;6.40;89.40
80279;DHT22;70683;52.492;13.416;2024-02-14T05:07:17;6.40;88.80
80279;DHT22;70683;52.492;13.416;2024-02-14T05:09:43;6.40;88.50
80279;DHT22;70683;52.492;13.416;2024-02-14T05:12:10;6.30;88.60
80279;DHT22;70683;52.492;13.416;2024-02-14T05:14:38;6.30;89.00
80279;DHT22;70683;52.492;13.416;2024-02-14T05:17:07;6.40;89.10
80279;DHT22;70683;52.492;13.416;2024-02-14T05:19:34;6.30;88.80
80279;DHT22;70683;52.492;13.416;2024-02-14T05:22:01;6.40;88.90
80279;DHT22;70683;52.492;13.416;2024-02-14T05:24:28;6.50;88.40
80279;DHT22;70683;52.492;13.416;2024-02-14T05:26:55;6.50;88.30
80279;DHT22;70683;52.492;13.416;2024-02-14T05:29:22;6.40;88.90
80279;DHT22;70683;52.492;13.416;2024-02-14T05:31:48;6.50;89.20
80279;DHT22;70683;52.492;13.416;2024-02-14T05:34:15;6.50;89.10
80279;DHT22;70683;52.492;13.416;2024-02-14T05:36:42;6.50;88.70
80279;DHT22;70683;52.492;13.416;2024-02-14T05:39:11;6.50;89.00
80279;DHT22;70683;52.492;13.416;2024-02-14T05:41:38;6.50;89.10
80279;DHT22;70683;52.492;13.416;2024-02-14T05:44:05;6.50;88.90
80279;DHT22;70683;52.492;13.416;2024-02-14T05:46:31;6.60;88.70
80279;DHT22;70683;52.492;13.416;2024-02-14T05:48:58;6.60;88.30
80279;DHT22;70683;52.492;13.416;2024-02-14T05:51:25;6.60;88.30
80279;DHT22;70683;52.492;13.416;2024-02-14T05:53:52;6.60;88.30
80279;DHT22;70683;52.492;13.416;2024-02-14T05:56:18;6.50;88.80
80279;DHT22;70683;52.492;13.416;2024-02-14T05:58:45;6.60;88.80
80279;DHT22;70683;52.492;13.416;2024-02-14T06:01:11;6.60;88.20
80279;DHT22;70683;52.492;13.416;2024-02-14T06:03:38;6.50;88.30
80279;DHT22;70683;52.492;13.416;2024-02-14T06:06:07;6.50;89.20
80279;DHT22;70683;52.492;13.416;2024-02-14T06:08:33;6.50;89.60
80279;DHT22;70683;52.492;13.416;2024-02-14T06:11:00;6.60;89.70
80279;DHT22;70683;52.492;13.416;2024-02-14T06:13:28;6.60;89.00
80279;DHT22;70683;52.492;13.416;2024-02-14T06:15:54;6.70;88.60
80279;DHT22;70683;52.492;13.416;2024-02-14T06:18:21;6.70;88.60
80279;DHT22;70683;52.492;13.416;2024-02-14T06:20:48;6.70;88.60
80279;DHT22;70683;52.492;13.416;2024-02-14T06:23:15;6.70;89.20
80279;DHT22;70683;52.492;13.416;2024-02-14T06:25:42;6.80;88.70
80279;DHT22;70683;52.492;13.416;2024-02-14T06:28:08;6.90;89.30
80279;DHT22;70683;52.492;13.416;2024-02-14T06:30:35;6.90;89.10
80279;DHT22;70683;52.492;13.416;2024-02-14T06:33:02;6.90;88.30
80279;DHT22;70683;52.492;13.416;2024-02-14T06:35:29;7.00;87.50
80279;DHT22;70683;52.492;13.416;2024-02-14T06:37:57;7.00;87.00
80279;DHT22;70683;52.492;13.416;2024-02-14T06:40:25;7.00;87.40
80279;DHT22;70683;52.492;13.416;2024-02-14T06:42:53;7.00;87.30
80279;DHT22;70683;52.492;13.416;2024-02-14T06:45:20;7.10;87.00
80279;DHT22;70683;52.492;13.416;2024-02-14T06:47:47;7.10;86.60
80279;DHT22;70683;52.492;13.416;2024-02-14T06:50:14;7.10;87.20
80279;DHT22;70683;52.492;13.416;2024-02-14T06:52:40;7.10;86.70
80279;DHT22;70683;52.492;13.416;2024-02-14T06:55:07;7.10;87.00
80279;DHT22;70683;52.492;13.416;2024-02-14T06:57:34;7.20;86.50
80279;DHT22;70683;52.492;13.416;2024-02-14T07:00:01;7.20;86.80
80279;DHT22;70683;52.492;13.416;2024-02-14T07:02:31;7.30;89.60
80279;DHT22;70683;52.492;13.416;2024-02-14T07:04:58;7.40;89.10
80279;DHT22;70683;52.492;13.416;2024-02-14T07:07:24;7.60;87.10
80279;DHT22;70683;52.492;13.416;2024-02-14T07:09:51;7.70;86.80
80279;DHT22;70683;52.492;13.416;2024-02-14T07:12:18;7.70;87.60
80279;DHT22;70683;52.492;13.416;2024-02-14T07:14:46;7.80;85.80
80279;DHT22;70683;52.492;13.416;2024-02-14T07:17:13;7.90;84.00
80279;DHT22;70683;52.492;13.416;2024-02-14T07:19:40;8.00;83.30
80279;DHT22;70683;52.492;13.416;2024-02-14T07:22:08;7.90;83.70
80279;DHT22;70683;52.492;13.416;2024-02-14T07:24:35;7.90;83.60
80279;DHT22;70683;52.492;13.416;2024-02-14T07:27:02;7.80;83.60
80279;DHT22;70683;52.492;13.416;2024-02-14T07:29:28;7.90;84.20
80279;DHT22;70683;52.492;13.416;2024-02-14T07:31:55;7.80;84.00
80279;DHT22;70683;52.492;13.416;2024-02-14T07:34:24;7.90;83.70
80279;DHT22;70683;52.492;13.416;2024-02-14T07:36:51;7.90;84.00
80279;DHT22;70683;52.492;13.416;2024-02-14T07:39:18;7.90;84.00
80279;DHT22;70683;52.492;13.416;2024-02-14T07:41:44;7.90;84.00
80279;DHT22;70683;52.492;13.416;2024-02-14T07:44:11;8.00;84.10
80279;DHT22;70683;52.492;13.416;2024-02-14T07:46:39;8.00;83.80
80279;DHT22;70683;52.492;13.416;2024-02-14T07:49:05;8.00;83.50
80279;DHT22;70683;52.492;13.416;2024-02-14T07:51:32;8.00;83.90
80279;DHT22;70683;52.492;13.416;2024-02-14T07:54:02;8.00;84.60
80279;DHT22;70683;52.492;13.416;2024-02-14T07:56:30;8.10;84.40
80279;DHT22;70683;52.492;13.416;2024-02-14T07:58:57;8.10;84.20
80279;DHT22;70683;52.492;13.416;2024-02-14T08:01:25;8.20;83.30
80279;DHT22;70683;52.492;13.416;2024-02-14T08:03:52;8.20;83.50
80279;DHT22;70683;52.492;13.416;2024-02-14T08:06:18;8.20;83.40
80279;DHT22;70683;52.492;13.416;2024-02-14T08:08:45;8.20;84.00
80279;DHT22;70683;52.492;13.416;2024-02-14T08:11:12;8.20;84.00
80279;DHT22;70683;52.492;13.416;2024-02-14T08:13:38;8.20;84.40
80279;DHT22;70683;52.492;13.416;2024-02-14T08:16:06;8.20;84.40
80279;DHT22;70683;52.492;13.416;2024-02-14T08:18:33;8.20;84.10
80279;DHT22;70683;52.492;13.416;2024-02-14T08:21:01;8.30;84.20
80279;DHT22;70683;52.492;13.416;2024-02-14T08:23:27;8.30;84.90
80279;DHT22;70683;52.492;13.416;2024-02-14T08:25:54;8.20;85.40
80279;DHT22;70683;52.492;13.416;2024-02-14T08:28:21;8.20;86.20
80279;DHT22;70683;52.492;13.416;2024-02-14T08:30:47;8.20;86.40
80279;DHT22;70683;52.492;13.416;2024-02-14T08:33:14;8.10;87.10
80279;DHT22;70683;52.492;13.416;2024-02-14T08:35:40;8.10;87.80
80279;DHT22;70683;52.492;13.416;2024-02-14T08:38:07;8.10;88.80
80279;DHT22;70683;52.492;13.416;2024-02-14T08:40:34;8.10;89.00
80279;DHT22;70683;52.492;13.416;2024-02-14T08:43:01;8.20;88.90
80279;DHT22;70683;52.492;13.416;2024-02-14T08:45:28;8.20;89.30
80279;DHT22;70683;52.492;13.416;2024-02-14T08:47:56;8.30;88.60
80279;DHT22;70683;52.492;13.416;2024-02-14T08:50:22;8.20;89.20
80279;DHT22;70683;52.492;13.416;2024-02-14T08:52:49;8.30;89.30
80279;DHT22;70683;52.492;13.416;2024-02-14T08:55:16;8.30;89.00
80279;DHT22;70683;52.492;13.416;2024-02-14T08:57:44;8.40;89.20
80279;DHT22;70683;52.492;13.416;2024-02-14T09:00:11;8.50;89.40
80279;DHT22;70683;52.492;13.416;2024-02-14T09:02:40;8.50;89.70
80279;DHT22;70683;52.492;13.416;2024-02-14T09:05:07;8.50;90.00
80279;DHT22;70683;52.492;13.416;2024-02-14T09:07:35;8.60;90.00
80279;DHT22;70683;52.492;13.416;2024-02-14T09:10:02;8.60;90.20
80279;DHT22;70683;52.492;13.416;2024-02-14T09:12:30;8.70;90.20
80279;DHT22;70683;52.492;13.416;2024-02-14T09:14:56;8.70;90.10
80279;DHT22;70683;52.492;13.416;2024-02-14T09:17:23;8.80;90.00
80279;DHT22;70683;52.492;13.416;2024-02-14T09:19:50;8.90;89.90
80279;DHT22;70683;52.492;13.416;2024-02-14T09:22:18;8.90;90.20
80279;DHT22;70683;52.492;13.416;2024-02-14T09:24:48;8.90;90.30
80279;DHT22;70683;52.492;13.416;2024-02-14T09:27:15;9.00;90.30
80279;DHT22;70683;52.492;13.416;2024-02-14T09:29:42;9.00;90.20
80279;DHT22;70683;52.492;13.416;2024-02-14T09:32:09;9.10;90.30
80279;DHT22;70683;52.492;13.416;2024-02-14T09:34:35;9.20;90.20
80279;DHT22;70683;52.492;13.416;2024-02-14T09:37:02;9.20;90.10
80279;DHT22;70683;52.492;13.416;2024-02-14T09:39:29;9.20;90.40
80279;DHT22;70683;52.492;13.416;2024-02-14T09:41:58;9.30;90.60
80279;DHT22;70683;52.492;13.416;2024-02-14T09:44:27;9.20;90.50
80279;DHT22;70683;52.492;13.416;2024-02-14T09:46:56;9.20;90.80
80279;DHT22;70683;52.492;13.416;2024-02-14T09:49:23;9.20;90.80
80279;DHT22;70683;52.492;13.416;2024-02-14T09:51:51;9.20;91.20
80279;DHT22;70683;52.492;13.416;2024-02-14T09:54:19;9.30;91.30
80279;DHT22;70683;52.492;13.416;2024-02-14T09:56:50;9.20;91.90
80279;DHT22;70683;52.492;13.416;2024-02-14T09:59:20;9.30;91.60
80279;DHT22;70683;52.492;13.416;2024-02-14T10:01:48;9.20;91.90
80279;DHT22;70683;52.492;13.416;2024-02-14T10:04:16;9.20;92.30
80279;DHT22;70683;52.492;13.416;2024-02-14T10:06:45;9.30;92.40
80279;DHT22;70683;52.492;13.416;2024-02-14T10:09:13;9.30;92.40
80279;DHT22;70683;52.492;13.416;2024-02-14T10:11:41;9.20;92.60
80279;DHT22;70683;52.492;13.416;2024-02-14T10:14:08;9.20;92.70
80279;DHT22;70683;52.492;13.416;2024-02-14T10:16:37;9.30;93.00
80279;DHT22;70683;52.492;13.416;2024-02-14T10:19:04;9.30;93.10
80279;DHT22;70683;52.492;13.416;2024-02-14T10:21:32;9.20;93.20
80279;DHT22;70683;52.492;13.416;2024-02-14T10:24:00;9.30;93.30
80279;DHT22;70683;52.492;13.416;2024-02-14T10:26:28;9.40;93.60
80279;DHT22;70683;52.492;13.416;2024-02-14T10:28:56;9.40;93.30
80279;DHT22;70683;52.492;13.416;2024-02-14T10:31:25;9.50;93.50
80279;DHT22;70683;52.492;13.416;2024-02-14T10:33:55;9.50;93.70
80279;DHT22;70683;52.492;13.416;2024-02-14T10:36:24;9.60;93.50
80279;DHT22;70683;52.492;13.416;2024-02-14T10:38:51;9.70;93.40
80279;DHT22;70683;52.492;13.416;2024-02-14T10:41:20;9.70;93.70
80279;DHT22;70683;52.492;13.416;2024-02-14T10:43:46;9.70;93.90
80279;DHT22;70683;52.492;13.416;2024-02-14T10:46:22;9.70;94.10
80279;DHT22;70683;52.492;13.416;2024-02-14T10:48:56;9.70;93.90
80279;DHT22;70683;52.492;13.416;2024-02-14T10:51:25;9.70;93.90
80279;DHT22;70683;52.492;13.416;2024-02-14T10:53:52;9.70;94.00
80279;DHT22;70683;52.492;13.416;2024-02-14T10:56:21;9.70;94.20
80279;DHT22;70683;52.492;13.416;2024-02-14T10:58:51;9.80;94.30
80279;DHT22;70683;52.492;13.416;2024-02-14T11:01:20;9.90;94.20
80279;DHT22;70683;52.492;13.416;2024-02-14T11:03:51;9.90;94.20
80279;DHT22;70683;52.492;13.416;2024-02-14T11:06:18;10.00;94.10
80279;DHT22;70683;52.492;13.416;2024-02-14T11:08:55;10.20;94.00
80279;DHT22;70683;52.492;13.416;2024-02-14T11:11:22;10.30;93.60
80279;DHT22;70683;52.492;13.416;2024-02-14T11:13:53;10.30;93.70
80279;DHT22;70683;52.492;13.416;2024-02-14T11:16:26;10.40;93.50
80279;DHT22;70683;52.492;13.416;2024-02-14T11:19:05;10.50;93.30
80279;DHT22;70683;52.492;13.416;2024-02-14T11:21:39;10.60;93.10
80279;DHT22;70683;52.492;13.416;2024-02-14T11:24:07;10.70;93.30
80279;DHT22;70683;52.492;13.416;2024-02-14T11:26:40;10.70;92.90
80279;DHT22;70683;52.492;13.416;2024-02-14T11:29:07;10.80;92.70
80279;DHT22;70683;52.492;13.416;2024-02-14T11:31:33;10.80;92.80
80279;DHT22;70683;52.492;13.416;2024-02-14T11:34:03;10.70;92.80
80279;DHT22;70683;52.492;13.416;2024-02-14T11:36:32;10.70;92.80
80279;DHT22;70683;52.492;13.416;2024-02-14T11:39:03;10.70;92.90
80279;DHT22;70683;52.492;13.416;2024-02-14T11:41:34;10.50;92.90
80279;DHT22;70683;52.492;13.416;2024-02-14T11:44:03;10.60;93.10
80279;DHT22;70683;52.492;13.416;2024-02-14T11:46:32;10.60;93.00
80279;DHT22;70683;52.492;13.416;2024-02-14T11:49:00;10.60;93.30
80279;DHT22;70683;52.492;13.416;2024-02-14T11:51:29;10.50;93.30
80279;DHT22;70683;52.492;13.416;2024-02-14T11:54:00;10.60;93.30
80279;DHT22;70683;52.492;13.416;2024-02-14T11:56:36;10.50;93.40
80279;DHT22;70683;52.492;13.416;2024-02-14T11:59:06;10.40;93.40
80279;DHT22;70683;52.492;13.416;2024-02-14T12:01:35;10.40;93.70
80279;DHT22;70683;52.492;13.416;2024-02-14T12:04:04;10.30;94.00
80279;DHT22;70683;52.492;13.416;2024-02-14T12:06:32;10.40;94.00
80279;DHT22;70683;52.492;13.416;2024-02-14T12:09:02;10.30;94.20
80279;DHT22;70683;52.492;13.416;2024-02-14T12:11:32;10.40;94.30
80279;DHT22;70683;52.492;13.416;2024-02-14T12:14:01;10.40;94.20
80279;DHT22;70683;52.492;13.416;2024-02-14T12:16:30;10.40;94.60
80279;DHT22;70683;52.492;13.416;2024-02-14T12:19:06;10.40;94.60
80279;DHT22;70683;52.492;13.416;2024-02-14T12:21:35;10.40;94.80
80279;DHT22;70683;52.492;13.416;2024-02-14T12:24:08;10.40;94.90
80279;DHT22;70683;52.492;13.416;2024-02-14T12:26:36;10.40;95.10
80279;DHT22;70683;52.492;13.416;2024-02-14T12:29:04;10.50;95.10
80279;DHT22;70683;52.492;13.416;2024-02-14T12:31:32;10.40;95.00
80279;DHT22;70683;52.492;13.416;2024-02-14T12:34:01;10.50;95.20
80279;DHT22;70683;52.492;13.416;2024-02-14T12:36:29;10.60;95.10
80279;DHT22;70683;52.492;13.416;2024-02-14T12:38:56;10.60;95.00
80279;DHT22;70683;52.492;13.416;2024-02-14T12:41:22;10.70;95.00
80279;DHT22;70683;52.492;13.416;2024-02-14T12:43:52;10.60;95.00
80279;DHT22;70683;52.492;13.416;2024-02-14T12:46:19;10.60;94.80
80279;DHT22;70683;52.492;13.416;2024-02-14T12:48:49;10.70;94.90
80279;DHT22;70683;52.492;13.416;2024-02-14T12:51:15;10.80;94.90
80279;DHT22;70683;52.492;13.416;2024-02-14T12:53:42;10.80;94.80
80279;DHT22;70683;52.492;13.416;2024-02-14T12:56:09;10.90;94.70
80279;DHT22;70683;52.492;13.416;2024-02-14T12:58:36;10.90;95.10
80279;DHT22;70683;52.492;13.416;2024-02-14T13:01:03;11.00;94.70
80279;DHT22;70683;52.492;13.416;2024-02-14T13:03:33;11.00;94.50
80279;DHT22;70683;52.492;13.416;2024-02-14T13:06:00;11.00;94.50
80279;DHT22;70683;52.492;13.416;2024-02-14T13:08:27;11.10;94.20
80279;DHT22;70683;52.492;13.416;2024-02-14T13:10:54;11.10;94.40
80279;DHT22;70683;52.492;13.416;2024-02-14T13:13:21;11.10;94.30
80279;DHT22;70683;52.492;13.416;2024-02-14T13:15:47;11.10;94.40
80279;DHT22;70683;52.492;13.416;2024-02-14T13:18:14;11.10;94.60
80279;DHT22;70683;52.492;13.416;2024-02-14T13:20:41;11.10;94.70
80279;DHT22;70683;52.492;13.416;2024-02-14T13:23:10;11.10;94.80
80279;DHT22;70683;52.492;13.416;2024-02-14T13:25:36;11.10;95.00
80279;DHT22;70683;52.492;13.416;2024-02-14T13:28:04;11.10;95.10
80279;DHT22;70683;52.492;13.416;2024-02-14T13:30:31;11.10;94.90
80279;DHT22;70683;52.492;13.416;2024-02-14T13:32:58;11.20;94.80
80279;DHT22;70683;52.492;13.416;2024-02-14T13:35:25;11.10;94.80
80279;DHT22;70683;52.492;13.416;2024-02-14T13:37:52;11.10;94.80
80279;DHT22;70683;52.492;13.416;2024-02-14T13:40:19;11.10;94.80
80279;DHT22;70683;52.492;13.416;2024-02-14T13:42:46;11.10;95.00
80279;DHT22;70683;52.492;13.416;2024-02-14T13:45:12;11.20;95.20
80279;DHT22;70683;52.492;13.416;2024-02-14T13:47:39;11.20;95.20
80279;DHT22;70683;52.492;13.416;2024-02-14T13:50:09;11.20;95.20
80279;DHT22;70683;52.492;13.416;2024-02-14T13:52:36;11.20;95.20
80279;DHT22;70683;52.492;13.416;2024-02-14T13:55:03;11.20;95.20
80279;DHT22;70683;52.492;13.416;2024-02-14T13:57:33;11.20;95.30
80279;DHT22;70683;52.492;13.416;2024-02-14T14:00:00;11.20;95.30
80279;DHT22;70683;52.492;13.416;2024-02-14T14:02:27;11.20;95.20
80279;DHT22;70683;52.492;13.416;2024-02-14T14:04:53;11.20;95.30
80279;DHT22;70683;52.492;13.416;2024-02-14T14:07:21;11.30;95.40
80279;DHT22;70683;52.492;13.416;2024-02-14T14:09:50;11.20;95.40
80279;DHT22;70683;52.492;13.416;2024-02-14T14:12:16;11.30;95.40
80279;DHT22;70683;52.492;13.416;2024-02-14T14:14:43;11.30;95.50
80279;DHT22;70683;52.492;13.416;2024-02-14T14:17:09;11.30;95.40
80279;DHT22;70683;52.492;13.416;2024-02-14T14:19:36;11.20;95.50
80279;DHT22;70683;52.492;13.416;2024-02-14T14:22:03;11.30;95.50
80279;DHT22;70683;52.492;13.416;2024-02-14T14:24:29;11.30;95.90
80279;DHT22;70683;52.492;13.416;2024-02-14T14:26:57;11.30;95.50
80279;DHT22;70683;52.492;13.416;2024-02-14T14:29:24;11.40;95.40
80279;DHT22;70683;52.492;13.416;2024-02-14T14:31:51;11.30;95.40
80279;DHT22;70683;52.492;13.416;2024-02-14T14:34:18;11.40;95.60
80279;DHT22;70683;52.492;13.416;2024-02-14T14:36:45;11.40;95.40
80279;DHT22;70683;52.492;13.416;2024-02-14T14:39:12;11.50;95.50
80279;DHT22;70683;52.492;13.416;2024-02-14T14:41:39;11.50;95.30
80279;DHT22;70683;52.492;13.416;2024-02-14T14:44:07;11.50;95.20
80279;DHT22;70683;52.492;13.416;2024-02-14T14:46:35;11.60;95.10
80279;DHT22;70683;52.492;13.416;2024-02-14T14:49:01;11.50;95.20
80279;DHT22;70683;52.492;13.416;2024-02-14T14:51:28;11.60;95.30
80279;DHT22;70683;52.492;13.416;2024-02-14T14:53:55;11.60;95.40
80279;DHT22;70683;52.492;13.416;2024-02-14T14:56:21;11.60;95.00
80279;DHT22;70683;52.492;13.416;2024-02-14T14:58:50;11.70;95.20
80279;DHT22;70683;52.492;13.416;2024-02-14T15:01:17;11.80;95.20
80279;DHT22;70683;52.492;13.416;2024-02-14T15:03:44;11.80;95.00
80279;DHT22;70683;52.492;13.416;2024-02-14T15:06:10;11.80;94.90
80279;DHT22;70683;52.492;13.416;2024-02-14T15:08:37;11.90;94.80
80279;DHT22;70683;52.492;13.416;2024-02-14T15:11:04;12.00;94.60
80279;DHT22;70683;52.492;13.416;2024-02-14T15:13:30;11.90;94.60
80279;DHT22;70683;52.492;13.416;2024-02-14T15:15:57;12.00;94.50
80279;DHT22;70683;52.492;13.416;2024-02-14T15:18:27;12.00;94.70
80279;DHT22;70683;52.492;13.416;2024-02-14T15:20:54;11.90;94.60
80279;DHT22;70683;52.492;13.416;2024-02-14T15:23:20;12.00;94.60
80279;DHT22;70683;52.492;13.416;2024-02-14T15:25:47;12.00;94.40
80279;DHT22;70683;52.492;13.416;2024-02-14T15:28:14;12.00;94.90